sensor_id;sensor_type;location;lat;lon;timestamp;P1;durP1;ratioP1;P2;durP2;ratioP2
34836;SDS011;21053;50.848;4.652;2023-03-01T00:01:19;32.35;;;14.73;;
34836;SDS011;21053;50.848;4.652;2023-03-01T00:03:47;26.70;;;13.60;;
34836;SDS011;21053;50.848;4.652;2023-03-01T00:06:14;28.52;;;13.10;;
34836;SDS011;21053;50.848;4.652;2023-03-01T00:08:43;27.80;;;12.93;;
34836;SDS011;21053;50.848;4.652;2023-03-01T00:11:14;25.95;;;13.38;;
34836;SDS011;21053;50.848;4.652;2023-03-01T00:13:49;29.45;;;13.98;;
34836;SDS011;21053;50.848;4.652;2023-03-01T00:16:18;28.25;;;13.32;;
34836;SDS011;21053;50.848;4.652;2023-03-01T00:18:55;34.80;;;13.35;;
34836;SDS011;21053;50.848;4.652;2023-03-01T00:21:25;29.83;;;13.25;;
34836;SDS011;21053;50.848;4.652;2023-03-01T00:26:24;26.30;;;12.82;;
34836;SDS011;21053;50.848;4.652;2023-03-01T00:28:54;31.80;;;13.25;;
34836;SDS011;21053;50.848;4.652;2023-03-01T00:31:23;25.67;;;13.10;;
34836;SDS011;21053;50.848;4.652;2023-03-01T00:33:57;29.23;;;13.85;;
34836;SDS011;21053;50.848;4.652;2023-03-01T00:36:29;27.45;;;13.07;;
34836;SDS011;21053;50.848;4.652;2023-03-01T00:38:59;29.60;;;13.13;;
34836;SDS011;21053;50.848;4.652;2023-03-01T00:41:28;28.25;;;13.35;;
34836;SDS011;21053;50.848;4.652;2023-03-01T00:43:56;23.98;;;12.93;;
34836;SDS011;21053;50.848;4.652;2023-03-01T00:46:24;25.55;;;13.10;;
34836;SDS011;21053;50.848;4.652;2023-03-01T00:48:51;31.80;;;13.85;;
34836;SDS011;21053;50.848;4.652;2023-03-01T00:51:24;28.25;;;13.20;;
34836;SDS011;21053;50.848;4.652;2023-03-01T00:53:55;30.48;;;14.07;;
34836;SDS011;21053;50.848;4.652;2023-03-01T00:56:28;28.42;;;13.68;;
34836;SDS011;21053;50.848;4.652;2023-03-01T00:58:58;30.48;;;12.95;;
34836;SDS011;21053;50.848;4.652;2023-03-01T01:01:34;26.10;;;14.23;;
34836;SDS011;21053;50.848;4.652;2023-03-01T01:04:02;32.40;;;14.20;;
34836;SDS011;21053;50.848;4.652;2023-03-01T01:06:35;27.85;;;13.93;;
34836;SDS011;21053;50.848;4.652;2023-03-01T01:11:48;27.92;;;12.93;;
34836;SDS011;21053;50.848;4.652;2023-03-01T01:14:15;27.80;;;13.57;;
34836;SDS011;21053;50.848;4.652;2023-03-01T01:16:42;29.15;;;14.02;;
34836;SDS011;21053;50.848;4.652;2023-03-01T01:19:10;29.90;;;13.00;;
34836;SDS011;21053;50.848;4.652;2023-03-01T01:24:08;27.98;;;13.25;;
34836;SDS011;21053;50.848;4.652;2023-03-01T01:29:06;29.52;;;14.30;;
34836;SDS011;21053;50.848;4.652;2023-03-01T01:31:33;25.38;;;13.52;;
34836;SDS011;21053;50.848;4.652;2023-03-01T01:34:03;30.60;;;14.70;;
34836;SDS011;21053;50.848;4.652;2023-03-01T01:36:32;29.15;;;14.95;;
34836;SDS011;21053;50.848;4.652;2023-03-01T01:38:59;28.95;;;14.00;;
34836;SDS011;21053;50.848;4.652;2023-03-01T01:46:54;30.42;;;14.50;;
34836;SDS011;21053;50.848;4.652;2023-03-01T01:49:29;28.63;;;13.43;;
34836;SDS011;21053;50.848;4.652;2023-03-01T01:52:19;29.00;;;13.45;;
34836;SDS011;21053;50.848;4.652;2023-03-01T01:54:57;31.50;;;14.95;;
34836;SDS011;21053;50.848;4.652;2023-03-01T01:57:30;24.98;;;13.30;;
34836;SDS011;21053;50.848;4.652;2023-03-01T02:00:03;32.95;;;14.55;;
34836;SDS011;21053;50.848;4.652;2023-03-01T02:02:37;23.08;;;13.52;;
34836;SDS011;21053;50.848;4.652;2023-03-01T02:05:12;27.73;;;12.95;;
34836;SDS011;21053;50.848;4.652;2023-03-01T02:07:46;27.35;;;13.88;;
34836;SDS011;21053;50.848;4.652;2023-03-01T02:10:14;29.10;;;13.48;;
34836;SDS011;21053;50.848;4.652;2023-03-01T02:12:47;25.95;;;13.48;;
34836;SDS011;21053;50.848;4.652;2023-03-01T02:15:13;28.55;;;13.73;;
34836;SDS011;21053;50.848;4.652;2023-03-01T02:17:41;33.35;;;14.88;;
34836;SDS011;21053;50.848;4.652;2023-03-01T02:20:23;29.05;;;13.73;;
34836;SDS011;21053;50.848;4.652;2023-03-01T02:23:13;26.25;;;13.63;;
34836;SDS011;21053;50.848;4.652;2023-03-01T02:25:52;29.92;;;14.13;;
34836;SDS011;21053;50.848;4.652;2023-03-01T02:28:37;22.83;;;13.18;;
34836;SDS011;21053;50.848;4.652;2023-03-01T02:33:55;28.83;;;15.07;;
34836;SDS011;21053;50.848;4.652;2023-03-01T02:36:23;30.00;;;13.98;;
34836;SDS011;21053;50.848;4.652;2023-03-01T02:38:52;26.98;;;13.55;;
34836;SDS011;21053;50.848;4.652;2023-03-01T02:41:23;26.30;;;13.82;;
34836;SDS011;21053;50.848;4.652;2023-03-01T02:43:52;22.40;;;13.48;;
34836;SDS011;21053;50.848;4.652;2023-03-01T02:46:19;24.42;;;13.45;;
34836;SDS011;21053;50.848;4.652;2023-03-01T02:48:53;27.38;;;13.73;;
34836;SDS011;21053;50.848;4.652;2023-03-01T02:57:00;30.98;;;13.82;;
34836;SDS011;21053;50.848;4.652;2023-03-01T02:59:30;29.38;;;13.52;;
34836;SDS011;21053;50.848;4.652;2023-03-01T03:04:25;28.83;;;13.95;;
34836;SDS011;21053;50.848;4.652;2023-03-01T03:06:54;24.85;;;14.05;;
34836;SDS011;21053;50.848;4.652;2023-03-01T03:09:21;26.13;;;13.90;;
34836;SDS011;21053;50.848;4.652;2023-03-01T03:11:48;25.20;;;13.20;;
34836;SDS011;21053;50.848;4.652;2023-03-01T03:14:17;33.13;;;14.10;;
34836;SDS011;21053;50.848;4.652;2023-03-01T03:19:17;26.00;;;13.60;;
34836;SDS011;21053;50.848;4.652;2023-03-01T03:21:45;33.90;;;13.98;;
34836;SDS011;21053;50.848;4.652;2023-03-01T03:24:13;25.55;;;14.02;;
34836;SDS011;21053;50.848;4.652;2023-03-01T03:29:08;31.90;;;14.88;;
34836;SDS011;21053;50.848;4.652;2023-03-01T03:31:37;26.05;;;13.60;;
34836;SDS011;21053;50.848;4.652;2023-03-01T03:34:04;28.23;;;13.95;;
34836;SDS011;21053;50.848;4.652;2023-03-01T03:36:32;26.35;;;13.70;;
34836;SDS011;21053;50.848;4.652;2023-03-01T03:39:00;26.95;;;14.45;;
34836;SDS011;21053;50.848;4.652;2023-03-01T03:41:27;28.90;;;13.52;;
34836;SDS011;21053;50.848;4.652;2023-03-01T03:46:22;30.10;;;12.88;;
34836;SDS011;21053;50.848;4.652;2023-03-01T03:48:48;25.67;;;13.90;;
34836;SDS011;21053;50.848;4.652;2023-03-01T03:51:16;24.67;;;13.75;;
34836;SDS011;21053;50.848;4.652;2023-03-01T03:53:45;32.10;;;14.15;;
34836;SDS011;21053;50.848;4.652;2023-03-01T03:56:11;28.90;;;14.20;;
34836;SDS011;21053;50.848;4.652;2023-03-01T03:58:40;26.17;;;14.15;;
34836;SDS011;21053;50.848;4.652;2023-03-01T04:01:07;25.10;;;13.90;;
34836;SDS011;21053;50.848;4.652;2023-03-01T04:03:34;32.85;;;14.05;;
34836;SDS011;21053;50.848;4.652;2023-03-01T04:08:32;31.30;;;13.95;;
34836;SDS011;21053;50.848;4.652;2023-03-01T04:11:04;22.80;;;12.77;;
34836;SDS011;21053;50.848;4.652;2023-03-01T04:13:50;27.55;;;13.25;;
34836;SDS011;21053;50.848;4.652;2023-03-01T04:21:18;28.83;;;13.75;;
34836;SDS011;21053;50.848;4.652;2023-03-01T04:23:46;30.75;;;13.68;;
34836;SDS011;21053;50.848;4.652;2023-03-01T04:26:13;25.45;;;13.02;;
34836;SDS011;21053;50.848;4.652;2023-03-01T04:31:12;22.50;;;13.18;;
34836;SDS011;21053;50.848;4.652;2023-03-01T04:36:12;26.13;;;13.13;;
34836;SDS011;21053;50.848;4.652;2023-03-01T04:38:42;25.10;;;13.23;;
34836;SDS011;21053;50.848;4.652;2023-03-01T04:41:15;29.83;;;13.30;;
34836;SDS011;21053;50.848;4.652;2023-03-01T04:43:42;27.40;;;14.10;;
34836;SDS011;21053;50.848;4.652;2023-03-01T04:48:38;29.40;;;13.57;;
34836;SDS011;21053;50.848;4.652;2023-03-01T04:51:06;26.13;;;13.68;;
34836;SDS011;21053;50.848;4.652;2023-03-01T04:53:35;29.10;;;13.73;;
34836;SDS011;21053;50.848;4.652;2023-03-01T04:56:10;25.75;;;12.93;;
34836;SDS011;21053;50.848;4.652;2023-03-01T04:58:36;22.85;;;13.20;;
34836;SDS011;21053;50.848;4.652;2023-03-01T05:01:07;28.17;;;13.38;;
34836;SDS011;21053;50.848;4.652;2023-03-01T05:03:40;30.77;;;13.60;;
34836;SDS011;21053;50.848;4.652;2023-03-01T05:06:10;27.63;;;13.60;;
34836;SDS011;21053;50.848;4.652;2023-03-01T05:08:37;31.83;;;12.85;;
34836;SDS011;21053;50.848;4.652;2023-03-01T05:11:04;23.48;;;13.27;;
34836;SDS011;21053;50.848;4.652;2023-03-01T05:13:32;28.05;;;13.68;;
34836;SDS011;21053;50.848;4.652;2023-03-01T05:16:00;25.80;;;13.02;;
34836;SDS011;21053;50.848;4.652;2023-03-01T05:18:30;25.63;;;12.63;;
34836;SDS011;21053;50.848;4.652;2023-03-01T05:21:05;28.50;;;13.57;;
34836;SDS011;21053;50.848;4.652;2023-03-01T05:23:34;29.33;;;13.48;;
34836;SDS011;21053;50.848;4.652;2023-03-01T05:26:01;25.98;;;13.00;;
34836;SDS011;21053;50.848;4.652;2023-03-01T05:28:32;25.38;;;13.20;;
34836;SDS011;21053;50.848;4.652;2023-03-01T05:30:58;22.25;;;12.93;;
34836;SDS011;21053;50.848;4.652;2023-03-01T05:33:26;24.20;;;12.65;;
34836;SDS011;21053;50.848;4.652;2023-03-01T05:35:53;33.45;;;12.93;;
34836;SDS011;21053;50.848;4.652;2023-03-01T05:38:22;24.33;;;13.00;;
34836;SDS011;21053;50.848;4.652;2023-03-01T05:43:17;26.67;;;13.93;;
34836;SDS011;21053;50.848;4.652;2023-03-01T05:45:43;27.08;;;13.65;;
34836;SDS011;21053;50.848;4.652;2023-03-01T05:48:12;30.38;;;13.75;;
34836;SDS011;21053;50.848;4.652;2023-03-01T05:50:42;31.35;;;12.93;;
34836;SDS011;21053;50.848;4.652;2023-03-01T05:53:21;35.35;;;13.52;;
34836;SDS011;21053;50.848;4.652;2023-03-01T05:57:33;28.50;;;13.02;;
34836;SDS011;21053;50.848;4.652;2023-03-01T06:00:00;28.35;;;13.52;;
34836;SDS011;21053;50.848;4.652;2023-03-01T06:02:26;23.50;;;13.48;;
34836;SDS011;21053;50.848;4.652;2023-03-01T06:04:55;26.33;;;13.27;;
34836;SDS011;21053;50.848;4.652;2023-03-01T06:07:22;27.75;;;12.93;;
34836;SDS011;21053;50.848;4.652;2023-03-01T06:09:51;26.08;;;12.98;;
34836;SDS011;21053;50.848;4.652;2023-03-01T06:12:18;28.63;;;12.75;;
34836;SDS011;21053;50.848;4.652;2023-03-01T06:14:44;33.17;;;13.70;;
34836;SDS011;21053;50.848;4.652;2023-03-01T06:17:12;26.83;;;13.40;;
34836;SDS011;21053;50.848;4.652;2023-03-01T06:19:39;24.95;;;13.43;;
34836;SDS011;21053;50.848;4.652;2023-03-01T06:22:05;30.77;;;13.75;;
34836;SDS011;21053;50.848;4.652;2023-03-01T06:24:38;31.30;;;13.63;;
34836;SDS011;21053;50.848;4.652;2023-03-01T06:27:04;29.50;;;13.80;;
34836;SDS011;21053;50.848;4.652;2023-03-01T06:29:33;32.28;;;15.60;;
34836;SDS011;21053;50.848;4.652;2023-03-01T06:32:00;25.08;;;13.18;;
34836;SDS011;21053;50.848;4.652;2023-03-01T06:34:26;33.30;;;14.48;;
34836;SDS011;21053;50.848;4.652;2023-03-01T06:36:53;27.17;;;14.38;;
34836;SDS011;21053;50.848;4.652;2023-03-01T06:39:20;37.90;;;15.40;;
34836;SDS011;21053;50.848;4.652;2023-03-01T06:41:47;28.33;;;14.93;;
34836;SDS011;21053;50.848;4.652;2023-03-01T06:44:14;30.60;;;14.98;;
34836;SDS011;21053;50.848;4.652;2023-03-01T06:49:09;29.25;;;14.57;;
34836;SDS011;21053;50.848;4.652;2023-03-01T06:54:05;34.65;;;13.70;;
34836;SDS011;21053;50.848;4.652;2023-03-01T06:58:59;28.30;;;14.27;;
34836;SDS011;21053;50.848;4.652;2023-03-01T07:01:26;29.77;;;14.40;;
34836;SDS011;21053;50.848;4.652;2023-03-01T07:03:53;31.30;;;14.48;;
34836;SDS011;21053;50.848;4.652;2023-03-01T07:06:21;34.05;;;14.52;;
34836;SDS011;21053;50.848;4.652;2023-03-01T07:08:49;32.95;;;14.80;;
34836;SDS011;21053;50.848;4.652;2023-03-01T07:11:16;37.00;;;18.10;;
34836;SDS011;21053;50.848;4.652;2023-03-01T07:13:43;48.97;;;24.95;;
34836;SDS011;21053;50.848;4.652;2023-03-01T07:16:12;47.00;;;20.30;;
34836;SDS011;21053;50.848;4.652;2023-03-01T07:21:14;95.85;;;27.75;;
34836;SDS011;21053;50.848;4.652;2023-03-01T07:23:41;92.15;;;27.80;;
34836;SDS011;21053;50.848;4.652;2023-03-01T07:26:09;82.10;;;23.58;;
34836;SDS011;21053;50.848;4.652;2023-03-01T07:28:34;44.10;;;17.60;;
34836;SDS011;21053;50.848;4.652;2023-03-01T07:31:05;45.40;;;18.77;;
34836;SDS011;21053;50.848;4.652;2023-03-01T07:33:32;38.88;;;16.30;;
34836;SDS011;21053;50.848;4.652;2023-03-01T07:35:59;31.05;;;15.02;;
34836;SDS011;21053;50.848;4.652;2023-03-01T07:38:28;32.65;;;15.93;;
34836;SDS011;21053;50.848;4.652;2023-03-01T07:40:58;40.65;;;16.40;;
34836;SDS011;21053;50.848;4.652;2023-03-01T07:43:26;29.92;;;14.98;;
34836;SDS011;21053;50.848;4.652;2023-03-01T07:45:59;36.15;;;15.38;;
34836;SDS011;21053;50.848;4.652;2023-03-01T07:52:58;40.92;;;15.02;;
34836;SDS011;21053;50.848;4.652;2023-03-01T07:55:24;35.15;;;14.68;;
34836;SDS011;21053;50.848;4.652;2023-03-01T07:57:50;27.58;;;14.85;;
34836;SDS011;21053;50.848;4.652;2023-03-01T08:00:22;30.02;;;14.95;;
34836;SDS011;21053;50.848;4.652;2023-03-01T08:02:49;29.77;;;15.70;;
34836;SDS011;21053;50.848;4.652;2023-03-01T08:05:15;34.25;;;14.60;;
34836;SDS011;21053;50.848;4.652;2023-03-01T08:07:42;30.23;;;14.75;;
34836;SDS011;21053;50.848;4.652;2023-03-01T08:10:07;29.35;;;14.13;;
34836;SDS011;21053;50.848;4.652;2023-03-01T08:12:34;31.35;;;15.05;;
34836;SDS011;21053;50.848;4.652;2023-03-01T08:14:59;29.15;;;14.90;;
34836;SDS011;21053;50.848;4.652;2023-03-01T08:17:26;30.42;;;14.63;;
34836;SDS011;21053;50.848;4.652;2023-03-01T08:19:54;31.25;;;15.30;;
34836;SDS011;21053;50.848;4.652;2023-03-01T08:22:21;30.38;;;14.57;;
34836;SDS011;21053;50.848;4.652;2023-03-01T08:24:48;27.42;;;14.30;;
34836;SDS011;21053;50.848;4.652;2023-03-01T08:27:17;31.33;;;15.07;;
34836;SDS011;21053;50.848;4.652;2023-03-01T08:29:43;26.30;;;14.55;;
34836;SDS011;21053;50.848;4.652;2023-03-01T08:32:14;31.92;;;15.43;;
34836;SDS011;21053;50.848;4.652;2023-03-01T08:34:41;29.38;;;14.15;;
34836;SDS011;21053;50.848;4.652;2023-03-01T08:37:10;31.33;;;14.45;;
34836;SDS011;21053;50.848;4.652;2023-03-01T08:39:36;30.63;;;13.35;;
34836;SDS011;21053;50.848;4.652;2023-03-01T08:42:09;27.40;;;13.90;;
34836;SDS011;21053;50.848;4.652;2023-03-01T08:47:11;36.75;;;13.52;;
34836;SDS011;21053;50.848;4.652;2023-03-01T08:49:38;23.80;;;13.30;;
34836;SDS011;21053;50.848;4.652;2023-03-01T08:52:05;30.45;;;14.18;;
34836;SDS011;21053;50.848;4.652;2023-03-01T08:54:32;28.88;;;14.85;;
34836;SDS011;21053;50.848;4.652;2023-03-01T08:57:01;31.08;;;13.95;;
34836;SDS011;21053;50.848;4.652;2023-03-01T08:59:27;28.25;;;13.63;;
34836;SDS011;21053;50.848;4.652;2023-03-01T09:01:57;25.83;;;14.32;;
34836;SDS011;21053;50.848;4.652;2023-03-01T09:04:23;27.67;;;13.63;;
34836;SDS011;21053;50.848;4.652;2023-03-01T09:06:50;24.75;;;13.18;;
34836;SDS011;21053;50.848;4.652;2023-03-01T09:09:17;25.80;;;12.82;;
34836;SDS011;21053;50.848;4.652;2023-03-01T09:11:46;24.15;;;13.32;;
34836;SDS011;21053;50.848;4.652;2023-03-01T09:14:16;29.55;;;14.35;;
34836;SDS011;21053;50.848;4.652;2023-03-01T09:16:42;33.50;;;13.73;;
34836;SDS011;21053;50.848;4.652;2023-03-01T09:19:11;44.28;;;14.23;;
34836;SDS011;21053;50.848;4.652;2023-03-01T09:21:39;28.25;;;14.45;;
34836;SDS011;21053;50.848;4.652;2023-03-01T09:24:07;33.85;;;14.77;;
34836;SDS011;21053;50.848;4.652;2023-03-01T09:26:40;31.08;;;14.15;;
34836;SDS011;21053;50.848;4.652;2023-03-01T09:29:06;32.25;;;13.43;;
34836;SDS011;21053;50.848;4.652;2023-03-01T09:31:35;27.67;;;13.38;;
34836;SDS011;21053;50.848;4.652;2023-03-01T09:36:31;25.63;;;12.90;;
34836;SDS011;21053;50.848;4.652;2023-03-01T09:38:59;33.05;;;13.68;;
34836;SDS011;21053;50.848;4.652;2023-03-01T09:44:27;32.97;;;14.40;;
34836;SDS011;21053;50.848;4.652;2023-03-01T09:49:56;31.65;;;14.02;;
34836;SDS011;21053;50.848;4.652;2023-03-01T09:52:36;22.23;;;12.32;;
34836;SDS011;21053;50.848;4.652;2023-03-01T09:55:16;29.42;;;12.63;;
34836;SDS011;21053;50.848;4.652;2023-03-01T09:57:53;31.90;;;13.27;;
34836;SDS011;21053;50.848;4.652;2023-03-01T10:00:39;24.40;;;12.68;;
34836;SDS011;21053;50.848;4.652;2023-03-01T10:08:43;18.27;;;9.98;;
34836;SDS011;21053;50.848;4.652;2023-03-01T10:11:24;18.48;;;10.30;;
34836;SDS011;21053;50.848;4.652;2023-03-01T10:19:38;24.02;;;10.73;;
34836;SDS011;21053;50.848;4.652;2023-03-01T10:25:05;21.95;;;12.23;;
34836;SDS011;21053;50.848;4.652;2023-03-01T10:27:36;22.70;;;11.32;;
34836;SDS011;21053;50.848;4.652;2023-03-01T10:30:22;21.63;;;10.30;;
34836;SDS011;21053;50.848;4.652;2023-03-01T10:32:59;18.52;;;10.13;;
34836;SDS011;21053;50.848;4.652;2023-03-01T10:35:27;15.60;;;9.23;;
34836;SDS011;21053;50.848;4.652;2023-03-01T10:38:13;26.75;;;9.35;;
34836;SDS011;21053;50.848;4.652;2023-03-01T10:40:51;20.73;;;10.73;;
34836;SDS011;21053;50.848;4.652;2023-03-01T10:43:19;15.77;;;9.32;;
34836;SDS011;21053;50.848;4.652;2023-03-01T10:45:45;16.92;;;9.93;;
34836;SDS011;21053;50.848;4.652;2023-03-01T10:48:16;20.08;;;9.57;;
34836;SDS011;21053;50.848;4.652;2023-03-01T10:50:50;15.15;;;9.27;;
34836;SDS011;21053;50.848;4.652;2023-03-01T10:53:43;15.43;;;9.10;;
34836;SDS011;21053;50.848;4.652;2023-03-01T10:56:16;15.60;;;8.75;;
34836;SDS011;21053;50.848;4.652;2023-03-01T10:59:04;16.88;;;9.18;;
34836;SDS011;21053;50.848;4.652;2023-03-01T11:01:35;20.00;;;9.35;;
34836;SDS011;21053;50.848;4.652;2023-03-01T11:06:34;19.30;;;8.68;;
34836;SDS011;21053;50.848;4.652;2023-03-01T11:11:51;16.73;;;8.55;;
34836;SDS011;21053;50.848;4.652;2023-03-01T11:14:25;17.08;;;8.82;;
34836;SDS011;21053;50.848;4.652;2023-03-01T11:17:03;16.42;;;8.98;;
34836;SDS011;21053;50.848;4.652;2023-03-01T11:19:36;16.65;;;8.38;;
34836;SDS011;21053;50.848;4.652;2023-03-01T11:22:11;16.38;;;9.20;;
34836;SDS011;21053;50.848;4.652;2023-03-01T11:24:49;17.77;;;9.18;;
34836;SDS011;21053;50.848;4.652;2023-03-01T11:29:59;15.73;;;8.50;;
34836;SDS011;21053;50.848;4.652;2023-03-01T11:42:11;14.23;;;7.78;;
34836;SDS011;21053;50.848;4.652;2023-03-01T11:44:40;16.48;;;8.38;;
34836;SDS011;21053;50.848;4.652;2023-03-01T11:47:13;14.85;;;8.05;;
34836;SDS011;21053;50.848;4.652;2023-03-01T11:56:05;15.45;;;8.48;;
34836;SDS011;21053;50.848;4.652;2023-03-01T12:04:26;13.10;;;8.30;;
34836;SDS011;21053;50.848;4.652;2023-03-01T12:12:45;13.73;;;8.80;;
34836;SDS011;21053;50.848;4.652;2023-03-01T12:24:11;19.25;;;9.00;;
34836;SDS011;21053;50.848;4.652;2023-03-01T12:32:45;13.70;;;7.97;;
34836;SDS011;21053;50.848;4.652;2023-03-01T12:40:52;14.25;;;8.55;;
34836;SDS011;21053;50.848;4.652;2023-03-01T12:43:52;18.60;;;8.48;;
34836;SDS011;21053;50.848;4.652;2023-03-01T12:49:30;12.55;;;7.57;;
34836;SDS011;21053;50.848;4.652;2023-03-01T12:54:38;15.50;;;8.13;;
34836;SDS011;21053;50.848;4.652;2023-03-01T13:05:42;17.92;;;9.25;;
34836;SDS011;21053;50.848;4.652;2023-03-01T13:08:20;15.88;;;8.88;;
34836;SDS011;21053;50.848;4.652;2023-03-01T13:11:00;14.65;;;8.15;;
34836;SDS011;21053;50.848;4.652;2023-03-01T13:13:31;15.15;;;8.10;;
34836;SDS011;21053;50.848;4.652;2023-03-01T13:16:19;17.02;;;8.23;;
34836;SDS011;21053;50.848;4.652;2023-03-01T13:19:09;13.45;;;8.02;;
34836;SDS011;21053;50.848;4.652;2023-03-01T13:21:43;24.40;;;8.80;;
34836;SDS011;21053;50.848;4.652;2023-03-01T13:27:18;22.67;;;9.32;;
34836;SDS011;21053;50.848;4.652;2023-03-01T13:29:53;16.27;;;8.93;;
34836;SDS011;21053;50.848;4.652;2023-03-01T13:32:25;22.80;;;8.88;;
34836;SDS011;21053;50.848;4.652;2023-03-01T13:35:07;19.50;;;8.73;;
34836;SDS011;21053;50.848;4.652;2023-03-01T13:46:18;17.77;;;9.43;;
34836;SDS011;21053;50.848;4.652;2023-03-01T13:48:50;16.75;;;9.25;;
34836;SDS011;21053;50.848;4.652;2023-03-01T13:51:21;17.80;;;8.65;;
34836;SDS011;21053;50.848;4.652;2023-03-01T13:53:54;15.50;;;8.88;;
34836;SDS011;21053;50.848;4.652;2023-03-01T13:59:02;19.75;;;9.30;;
34836;SDS011;21053;50.848;4.652;2023-03-01T14:01:34;18.00;;;9.63;;
34836;SDS011;21053;50.848;4.652;2023-03-01T14:04:03;18.00;;;9.27;;
34836;SDS011;21053;50.848;4.652;2023-03-01T14:06:43;18.80;;;9.75;;
34836;SDS011;21053;50.848;4.652;2023-03-01T14:20:14;20.77;;;9.80;;
34836;SDS011;21053;50.848;4.652;2023-03-01T14:24:05;18.95;;;9.70;;
34836;SDS011;21053;50.848;4.652;2023-03-01T14:26:40;17.60;;;9.38;;
34836;SDS011;21053;50.848;4.652;2023-03-01T14:29:06;23.00;;;9.00;;
34836;SDS011;21053;50.848;4.652;2023-03-01T14:31:47;17.50;;;9.52;;
34836;SDS011;21053;50.848;4.652;2023-03-01T14:34:31;17.63;;;9.52;;
34836;SDS011;21053;50.848;4.652;2023-03-01T14:37:09;17.50;;;9.07;;
34836;SDS011;21053;50.848;4.652;2023-03-01T14:39:35;19.10;;;8.75;;
34836;SDS011;21053;50.848;4.652;2023-03-01T14:42:04;18.70;;;9.48;;
34836;SDS011;21053;50.848;4.652;2023-03-01T14:44:31;18.20;;;8.30;;
34836;SDS011;21053;50.848;4.652;2023-03-01T14:47:03;17.25;;;8.65;;
34836;SDS011;21053;50.848;4.652;2023-03-01T14:49:31;15.85;;;8.70;;
34836;SDS011;21053;50.848;4.652;2023-03-01T14:52:05;17.38;;;8.90;;
34836;SDS011;21053;50.848;4.652;2023-03-01T14:54:43;14.48;;;8.48;;
34836;SDS011;21053;50.848;4.652;2023-03-01T14:57:13;19.02;;;8.60;;
34836;SDS011;21053;50.848;4.652;2023-03-01T14:59:43;15.10;;;8.52;;
34836;SDS011;21053;50.848;4.652;2023-03-01T15:02:13;22.52;;;9.07;;
34836;SDS011;21053;50.848;4.652;2023-03-01T15:04:43;20.83;;;8.77;;
34836;SDS011;21053;50.848;4.652;2023-03-01T15:07:13;17.05;;;8.50;;
34836;SDS011;21053;50.848;4.652;2023-03-01T15:09:40;16.77;;;8.65;;
34836;SDS011;21053;50.848;4.652;2023-03-01T15:14:56;16.92;;;8.57;;
34836;SDS011;21053;50.848;4.652;2023-03-01T15:20:03;17.38;;;8.40;;
34836;SDS011;21053;50.848;4.652;2023-03-01T15:22:31;16.38;;;8.15;;
34836;SDS011;21053;50.848;4.652;2023-03-01T15:24:57;15.38;;;7.57;;
34836;SDS011;21053;50.848;4.652;2023-03-01T15:27:23;15.98;;;8.27;;
34836;SDS011;21053;50.848;4.652;2023-03-01T15:29:55;15.45;;;8.27;;
34836;SDS011;21053;50.848;4.652;2023-03-01T15:32:35;20.42;;;8.50;;
34836;SDS011;21053;50.848;4.652;2023-03-01T15:38:00;15.15;;;8.30;;
34836;SDS011;21053;50.848;4.652;2023-03-01T15:40:27;19.45;;;7.47;;
34836;SDS011;21053;50.848;4.652;2023-03-01T15:43:01;13.45;;;7.50;;
34836;SDS011;21053;50.848;4.652;2023-03-01T15:45:32;18.10;;;7.85;;
34836;SDS011;21053;50.848;4.652;2023-03-01T15:48:04;18.15;;;8.57;;
34836;SDS011;21053;50.848;4.652;2023-03-01T15:53:13;22.75;;;8.65;;
34836;SDS011;21053;50.848;4.652;2023-03-01T15:55:41;16.70;;;8.43;;
34836;SDS011;21053;50.848;4.652;2023-03-01T15:58:12;16.52;;;8.57;;
34836;SDS011;21053;50.848;4.652;2023-03-01T16:00:41;13.77;;;8.02;;
34836;SDS011;21053;50.848;4.652;2023-03-01T16:03:10;18.92;;;8.20;;
34836;SDS011;21053;50.848;4.652;2023-03-01T16:05:38;17.70;;;8.00;;
34836;SDS011;21053;50.848;4.652;2023-03-01T16:08:04;15.77;;;8.13;;
34836;SDS011;21053;50.848;4.652;2023-03-01T16:10:33;15.25;;;8.75;;
34836;SDS011;21053;50.848;4.652;2023-03-01T16:13:02;21.77;;;9.00;;
34836;SDS011;21053;50.848;4.652;2023-03-01T16:15:29;15.00;;;8.10;;
34836;SDS011;21053;50.848;4.652;2023-03-01T16:17:58;14.02;;;7.38;;
34836;SDS011;21053;50.848;4.652;2023-03-01T16:22:58;16.48;;;8.65;;
34836;SDS011;21053;50.848;4.652;2023-03-01T16:25:25;16.88;;;8.30;;
34836;SDS011;21053;50.848;4.652;2023-03-01T16:27:52;17.88;;;7.95;;
34836;SDS011;21053;50.848;4.652;2023-03-01T16:30:19;17.00;;;7.55;;
34836;SDS011;21053;50.848;4.652;2023-03-01T16:32:48;18.70;;;8.90;;
34836;SDS011;21053;50.848;4.652;2023-03-01T16:35:15;13.43;;;7.88;;
34836;SDS011;21053;50.848;4.652;2023-03-01T16:37:43;17.65;;;7.65;;
34836;SDS011;21053;50.848;4.652;2023-03-01T16:40:17;22.42;;;8.23;;
34836;SDS011;21053;50.848;4.652;2023-03-01T16:42:45;16.38;;;7.93;;
34836;SDS011;21053;50.848;4.652;2023-03-01T16:45:10;22.55;;;7.57;;
34836;SDS011;21053;50.848;4.652;2023-03-01T16:47:37;17.33;;;7.43;;
34836;SDS011;21053;50.848;4.652;2023-03-01T16:50:09;19.20;;;8.57;;
34836;SDS011;21053;50.848;4.652;2023-03-01T16:52:36;18.90;;;8.50;;
34836;SDS011;21053;50.848;4.652;2023-03-01T16:55:05;13.80;;;7.93;;
34836;SDS011;21053;50.848;4.652;2023-03-01T16:57:35;24.42;;;7.75;;
34836;SDS011;21053;50.848;4.652;2023-03-01T17:00:05;19.88;;;8.55;;
34836;SDS011;21053;50.848;4.652;2023-03-01T17:05:02;20.35;;;8.35;;
34836;SDS011;21053;50.848;4.652;2023-03-01T17:07:29;17.38;;;8.20;;
34836;SDS011;21053;50.848;4.652;2023-03-01T17:10:00;19.27;;;7.95;;
34836;SDS011;21053;50.848;4.652;2023-03-01T17:12:27;13.73;;;7.70;;
34836;SDS011;21053;50.848;4.652;2023-03-01T17:14:56;15.73;;;7.75;;
34836;SDS011;21053;50.848;4.652;2023-03-01T17:17:25;18.77;;;7.63;;
34836;SDS011;21053;50.848;4.652;2023-03-01T17:19:53;15.57;;;7.70;;
34836;SDS011;21053;50.848;4.652;2023-03-01T17:22:19;18.60;;;8.48;;
34836;SDS011;21053;50.848;4.652;2023-03-01T17:24:47;18.77;;;7.93;;
34836;SDS011;21053;50.848;4.652;2023-03-01T17:27:12;19.95;;;8.90;;
34836;SDS011;21053;50.848;4.652;2023-03-01T17:29:42;20.90;;;9.55;;
34836;SDS011;21053;50.848;4.652;2023-03-01T17:32:09;14.77;;;8.02;;
34836;SDS011;21053;50.848;4.652;2023-03-01T17:34:37;15.77;;;7.22;;
34836;SDS011;21053;50.848;4.652;2023-03-01T17:37:04;18.92;;;8.20;;
34836;SDS011;21053;50.848;4.652;2023-03-01T17:39:29;14.60;;;7.90;;
34836;SDS011;21053;50.848;4.652;2023-03-01T17:42:02;16.13;;;8.05;;
34836;SDS011;21053;50.848;4.652;2023-03-01T17:44:34;18.75;;;7.40;;
34836;SDS011;21053;50.848;4.652;2023-03-01T17:47:01;17.88;;;7.95;;
34836;SDS011;21053;50.848;4.652;2023-03-01T17:49:34;15.88;;;7.95;;
34836;SDS011;21053;50.848;4.652;2023-03-01T17:51:59;13.88;;;7.70;;
34836;SDS011;21053;50.848;4.652;2023-03-01T17:54:31;14.57;;;7.47;;
34836;SDS011;21053;50.848;4.652;2023-03-01T17:56:57;16.08;;;7.70;;
34836;SDS011;21053;50.848;4.652;2023-03-01T18:01:56;22.83;;;9.07;;
34836;SDS011;21053;50.848;4.652;2023-03-01T18:04:22;17.27;;;8.15;;
34836;SDS011;21053;50.848;4.652;2023-03-01T18:06:49;14.40;;;8.13;;
34836;SDS011;21053;50.848;4.652;2023-03-01T18:09:16;20.70;;;8.50;;
34836;SDS011;21053;50.848;4.652;2023-03-01T18:11:43;20.60;;;9.40;;